sensor_id;sensor_type;location;lat;lon;timestamp;pressure;altitude;pressure_sealevel;temperature;humidity
67013;BME280;53926;47.406;19.188;2022-12-18T00:01:34;101749.94;;;-2.93;100.00
67013;BME280;53926;47.406;19.188;2022-12-18T00:04:05;101755.03;;;-2.93;100.00
67013;BME280;53926;47.406;19.188;2022-12-18T00:06:33;101756.69;;;-2.92;100.00
67013;BME280;53926;47.406;19.188;2022-12-18T00:09:00;101767.28;;;-2.84;100.00
67013;BME280;53926;47.406;19.188;2022-12-18T00:11:29;101766.22;;;-2.80;100.00
67013;BME280;53926;47.406;19.188;2022-12-18T00:13:58;101767.84;;;-2.79;100.00
67013;BME280;53926;47.406;19.188;2022-12-18T00:16:26;101772.69;;;-2.74;100.00
67013;BME280;53926;47.406;19.188;2022-12-18T00:18:56;101783.22;;;-2.64;100.00
67013;BME280;53926;47.406;19.188;2022-12-18T00:21:28;101781.81;;;-2.54;100.00
67013;BME280;53926;47.406;19.188;2022-12-18T00:23:55;101791.84;;;-2.51;100.00
67013;BME280;53926;47.406;19.188;2022-12-18T00:26:24;101801.88;;;-2.48;100.00
67013;BME280;53926;47.406;19.188;2022-12-18T00:28:51;101804.94;;;-2.57;100.00
67013;BME280;53926;47.406;19.188;2022-12-18T00:31:20;101811.31;;;-2.50;100.00
67013;BME280;53926;47.406;19.188;2022-12-18T00:33:48;101824.75;;;-2.46;100.00
67013;BME280;53926;47.406;19.188;2022-12-18T00:36:21;101823.91;;;-2.47;100.00
67013;BME280;53926;47.406;19.188;2022-12-18T00:38:48;101827.69;;;-2.38;100.00
67013;BME280;53926;47.406;19.188;2022-12-18T00:41:18;101832.69;;;-2.37;100.00
67013;BME280;53926;47.406;19.188;2022-12-18T00:44:06;101830.31;;;-2.40;100.00
67013;BME280;53926;47.406;19.188;2022-12-18T00:46:33;101830.66;;;-2.46;100.00
67013;BME280;53926;47.406;19.188;2022-12-18T00:49:00;101831.41;;;-2.60;100.00
67013;BME280;53926;47.406;19.188;2022-12-18T00:51:26;101826.81;;;-2.69;100.00
67013;BME280;53926;47.406;19.188;2022-12-18T00:53:53;101846.06;;;-2.79;100.00
67013;BME280;53926;47.406;19.188;2022-12-18T00:56:20;101845.97;;;-2.78;100.00
67013;BME280;53926;47.406;19.188;2022-12-18T00:58:50;101844.31;;;-2.79;100.00
67013;BME280;53926;47.406;19.188;2022-12-18T01:01:17;101854.19;;;-2.89;100.00
67013;BME280;53926;47.406;19.188;2022-12-18T01:03:43;101850.56;;;-3.00;100.00
67013;BME280;53926;47.406;19.188;2022-12-18T01:06:13;101854.13;;;-3.20;100.00
67013;BME280;53926;47.406;19.188;2022-12-18T01:08:40;101851.50;;;-3.19;100.00
67013;BME280;53926;47.406;19.188;2022-12-18T01:11:08;101853.16;;;-3.18;100.00
67013;BME280;53926;47.406;19.188;2022-12-18T01:13:38;101864.69;;;-3.11;100.00
67013;BME280;53926;47.406;19.188;2022-12-18T01:16:06;101865.81;;;-3.16;100.00
67013;BME280;53926;47.406;19.188;2022-12-18T01:18:33;101872.34;;;-3.11;100.00
67013;BME280;53926;47.406;19.188;2022-12-18T01:21:00;101868.56;;;-3.03;100.00
67013;BME280;53926;47.406;19.188;2022-12-18T01:23:26;101866.09;;;-3.05;100.00
67013;BME280;53926;47.406;19.188;2022-12-18T01:25:53;101862.97;;;-3.10;100.00
67013;BME280;53926;47.406;19.188;2022-12-18T01:28:20;101867.59;;;-3.01;100.00
67013;BME280;53926;47.406;19.188;2022-12-18T01:30:49;101863.81;;;-2.94;100.00
67013;BME280;53926;47.406;19.188;2022-12-18T01:33:15;101869.41;;;-2.87;100.00
67013;BME280;53926;47.406;19.188;2022-12-18T01:35:42;101878.63;;;-2.84;100.00
67013;BME280;53926;47.406;19.188;2022-12-18T01:38:09;101873.38;;;-2.81;100.00
67013;BME280;53926;47.406;19.188;2022-12-18T01:40:36;101880.34;;;-2.85;100.00
67013;BME280;53926;47.406;19.188;2022-12-18T01:43:03;101872.03;;;-2.89;100.00
67013;BME280;53926;47.406;19.188;2022-12-18T01:45:31;101882.72;;;-2.82;100.00
67013;BME280;53926;47.406;19.188;2022-12-18T01:48:05;101889.31;;;-2.78;100.00
67013;BME280;53926;47.406;19.188;2022-12-18T01:50:39;101890.41;;;-2.66;100.00
67013;BME280;53926;47.406;19.188;2022-12-18T01:53:21;101885.22;;;-2.64;100.00
67013;BME280;53926;47.406;19.188;2022-12-18T01:55:53;101894.81;;;-2.70;100.00
67013;BME280;53926;47.406;19.188;2022-12-18T01:58:32;101907.41;;;-2.66;100.00
67013;BME280;53926;47.406;19.188;2022-12-18T02:01:01;101895.91;;;-2.58;100.00
67013;BME280;53926;47.406;19.188;2022-12-18T02:03:28;101895.06;;;-2.74;100.00
67013;BME280;53926;47.406;19.188;2022-12-18T02:06:16;101905.78;;;-2.67;100.00
67013;BME280;53926;47.406;19.188;2022-12-18T02:09:05;101904.03;;;-2.83;100.00
67013;BME280;53926;47.406;19.188;2022-12-18T02:11:55;101901.81;;;-2.89;100.00
67013;BME280;53926;47.406;19.188;2022-12-18T02:18:25;101905.66;;;-2.98;100.00
67013;BME280;53926;47.406;19.188;2022-12-18T02:20:36;101903.03;;;-2.96;100.00
67013;BME280;53926;47.406;19.188;2022-12-18T02:26:26;101925.69;;;-3.08;100.00
67013;BME280;53926;47.406;19.188;2022-12-18T02:29:38;101924.13;;;-3.10;100.00
67013;BME280;53926;47.406;19.188;2022-12-18T02:32:11;101923.22;;;-3.09;100.00
67013;BME280;53926;47.406;19.188;2022-12-18T02:34:40;101929.75;;;-3.21;100.00
67013;BME280;53926;47.406;19.188;2022-12-18T02:37:14;101929.91;;;-3.24;100.00
67013;BME280;53926;47.406;19.188;2022-12-18T02:39:44;101940.25;;;-3.27;100.00
67013;BME280;53926;47.406;19.188;2022-12-18T02:42:12;101947.63;;;-3.38;100.00
67013;BME280;53926;47.406;19.188;2022-12-18T02:44:47;101948.97;;;-3.49;100.00
67013;BME280;53926;47.406;19.188;2022-12-18T02:47:17;101948.22;;;-3.51;100.00
67013;BME280;53926;47.406;19.188;2022-12-18T02:52:47;101942.50;;;-3.56;100.00
67013;BME280;53926;47.406;19.188;2022-12-18T03:03:57;101969.28;;;-4.39;100.00
67013;BME280;53926;47.406;19.188;2022-12-18T03:06:32;101972.81;;;-4.42;100.00
67013;BME280;53926;47.406;19.188;2022-12-18T03:09:03;101981.25;;;-4.60;100.00
67013;BME280;53926;47.406;19.188;2022-12-18T03:11:34;101975.22;;;-4.97;100.00
67013;BME280;53926;47.406;19.188;2022-12-18T03:14:23;101974.25;;;-4.95;100.00
67013;BME280;53926;47.406;19.188;2022-12-18T03:16:53;101981.81;;;-5.14;100.00
67013;BME280;53926;47.406;19.188;2022-12-18T03:19:22;101977.56;;;-5.34;100.00
67013;BME280;53926;47.406;19.188;2022-12-18T03:21:54;101984.59;;;-5.41;100.00
67013;BME280;53926;47.406;19.188;2022-12-18T03:24:23;101986.47;;;-5.24;100.00
67013;BME280;53926;47.406;19.188;2022-12-18T03:26:54;101981.72;;;-5.33;100.00
67013;BME280;53926;47.406;19.188;2022-12-18T03:29:35;101990.88;;;-5.49;100.00
67013;BME280;53926;47.406;19.188;2022-12-18T03:32:07;101998.06;;;-5.61;100.00
67013;BME280;53926;47.406;19.188;2022-12-18T03:34:37;102002.59;;;-5.47;100.00
67013;BME280;53926;47.406;19.188;2022-12-18T03:37:05;102003.88;;;-5.57;100.00
67013;BME280;53926;47.406;19.188;2022-12-18T03:39:34;102013.78;;;-5.51;100.00
67013;BME280;53926;47.406;19.188;2022-12-18T03:45:09;102005.44;;;-5.32;100.00
67013;BME280;53926;47.406;19.188;2022-12-18T03:48:13;102010.63;;;-5.35;100.00
67013;BME280;53926;47.406;19.188;2022-12-18T03:50:47;102012.47;;;-5.61;100.00
67013;BME280;53926;47.406;19.188;2022-12-18T03:53:45;102015.06;;;-5.63;100.00
67013;BME280;53926;47.406;19.188;2022-12-18T03:56:15;102024.03;;;-5.76;100.00
67013;BME280;53926;47.406;19.188;2022-12-18T03:58:43;102022.75;;;-5.86;100.00
67013;BME280;53926;47.406;19.188;2022-12-18T04:01:13;102025.53;;;-5.93;100.00
67013;BME280;53926;47.406;19.188;2022-12-18T04:03:42;102017.31;;;-6.21;100.00
67013;BME280;53926;47.406;19.188;2022-12-18T04:06:11;102020.72;;;-6.22;100.00
67013;BME280;53926;47.406;19.188;2022-12-18T04:08:38;102029.13;;;-6.20;100.00
67013;BME280;53926;47.406;19.188;2022-12-18T04:11:06;102037.84;;;-6.05;100.00
67013;BME280;53926;47.406;19.188;2022-12-18T04:13:35;102032.25;;;-6.14;100.00
67013;BME280;53926;47.406;19.188;2022-12-18T04:16:03;102038.56;;;-6.25;100.00
67013;BME280;53926;47.406;19.188;2022-12-18T04:18:30;102040.13;;;-6.45;100.00
67013;BME280;53926;47.406;19.188;2022-12-18T04:20:57;102029.87;;;-6.42;100.00
67013;BME280;53926;47.406;19.188;2022-12-18T04:23:24;102026.44;;;-6.41;100.00
67013;BME280;53926;47.406;19.188;2022-12-18T04:25:50;102032.97;;;-6.57;100.00
67013;BME280;53926;47.406;19.188;2022-12-18T04:28:17;102044.19;;;-6.41;100.00
67013;BME280;53926;47.406;19.188;2022-12-18T04:30:44;102039.75;;;-6.34;100.00
67013;BME280;53926;47.406;19.188;2022-12-18T04:33:17;102043.75;;;-6.52;100.00
67013;BME280;53926;47.406;19.188;2022-12-18T04:35:44;102043.34;;;-6.90;100.00
67013;BME280;53926;47.406;19.188;2022-12-18T04:38:11;102044.28;;;-6.93;100.00
67013;BME280;53926;47.406;19.188;2022-12-18T04:40:38;102049.19;;;-6.63;100.00
67013;BME280;53926;47.406;19.188;2022-12-18T04:43:07;102049.25;;;-6.90;100.00
67013;BME280;53926;47.406;19.188;2022-12-18T04:45:34;102058.28;;;-6.83;100.00
67013;BME280;53926;47.406;19.188;2022-12-18T04:48:01;102068.16;;;-7.00;100.00
67013;BME280;53926;47.406;19.188;2022-12-18T04:50:29;102075.81;;;-7.02;100.00
67013;BME280;53926;47.406;19.188;2022-12-18T04:52:56;102071.75;;;-7.07;100.00
67013;BME280;53926;47.406;19.188;2022-12-18T04:55:25;102069.53;;;-6.90;100.00
67013;BME280;53926;47.406;19.188;2022-12-18T04:57:52;102084.66;;;-7.15;100.00
67013;BME280;53926;47.406;19.188;2022-12-18T05:00:19;102081.94;;;-7.09;100.00
67013;BME280;53926;47.406;19.188;2022-12-18T05:02:46;102084.13;;;-6.98;100.00
67013;BME280;53926;47.406;19.188;2022-12-18T05:05:13;102093.84;;;-6.86;100.00
67013;BME280;53926;47.406;19.188;2022-12-18T05:07:40;102092.81;;;-6.80;100.00
67013;BME280;53926;47.406;19.188;2022-12-18T05:10:07;102089.84;;;-6.91;100.00
67013;BME280;53926;47.406;19.188;2022-12-18T05:12:36;102101.50;;;-7.14;100.00
67013;BME280;53926;47.406;19.188;2022-12-18T05:15:22;102102.84;;;-7.30;100.00
67013;BME280;53926;47.406;19.188;2022-12-18T05:17:49;102116.91;;;-7.20;100.00
67013;BME280;53926;47.406;19.188;2022-12-18T05:20:16;102111.94;;;-7.23;100.00
67013;BME280;53926;47.406;19.188;2022-12-18T05:22:44;102106.66;;;-6.90;100.00
67013;BME280;53926;47.406;19.188;2022-12-18T05:25:11;102112.41;;;-7.39;100.00
67013;BME280;53926;47.406;19.188;2022-12-18T05:27:38;102111.06;;;-7.22;100.00
67013;BME280;53926;47.406;19.188;2022-12-18T05:30:05;102115.78;;;-7.40;100.00
67013;BME280;53926;47.406;19.188;2022-12-18T05:32:32;102123.38;;;-7.40;100.00
67013;BME280;53926;47.406;19.188;2022-12-18T05:34:59;102125.22;;;-7.45;100.00
67013;BME280;53926;47.406;19.188;2022-12-18T05:37:25;102128.22;;;-7.04;100.00
67013;BME280;53926;47.406;19.188;2022-12-18T05:39:52;102142.16;;;-7.19;100.00
67013;BME280;53926;47.406;19.188;2022-12-18T05:42:19;102138.34;;;-7.32;100.00
67013;BME280;53926;47.406;19.188;2022-12-18T05:44:46;102140.72;;;-7.56;100.00
67013;BME280;53926;47.406;19.188;2022-12-18T05:47:12;102137.44;;;-7.29;100.00
67013;BME280;53926;47.406;19.188;2022-12-18T05:49:39;102147.09;;;-7.42;100.00
67013;BME280;53926;47.406;19.188;2022-12-18T05:52:06;102138.06;;;-7.51;100.00
67013;BME280;53926;47.406;19.188;2022-12-18T05:54:33;102140.19;;;-7.37;100.00
67013;BME280;53926;47.406;19.188;2022-12-18T05:56:59;102145.47;;;-7.45;100.00
67013;BME280;53926;47.406;19.188;2022-12-18T05:59:26;102147.06;;;-7.41;100.00
67013;BME280;53926;47.406;19.188;2022-12-18T06:01:53;102142.00;;;-7.41;100.00
67013;BME280;53926;47.406;19.188;2022-12-18T06:04:20;102155.13;;;-7.58;100.00
67013;BME280;53926;47.406;19.188;2022-12-18T06:06:46;102154.12;;;-7.82;100.00
67013;BME280;53926;47.406;19.188;2022-12-18T06:09:13;102151.28;;;-7.71;100.00
67013;BME280;53926;47.406;19.188;2022-12-18T06:11:40;102148.81;;;-7.73;100.00
67013;BME280;53926;47.406;19.188;2022-12-18T06:14:07;102160.13;;;-7.86;100.00
67013;BME280;53926;47.406;19.188;2022-12-18T06:16:33;102162.81;;;-7.92;100.00
67013;BME280;53926;47.406;19.188;2022-12-18T06:19:02;102167.81;;;-7.59;100.00
67013;BME280;53926;47.406;19.188;2022-12-18T06:21:30;102165.72;;;-7.45;100.00
67013;BME280;53926;47.406;19.188;2022-12-18T06:23:59;102164.53;;;-7.63;100.00
67013;BME280;53926;47.406;19.188;2022-12-18T06:26:26;102173.91;;;-7.66;100.00
67013;BME280;53926;47.406;19.188;2022-12-18T06:28:53;102175.84;;;-7.75;100.00
67013;BME280;53926;47.406;19.188;2022-12-18T06:31:20;102191.75;;;-7.71;100.00
67013;BME280;53926;47.406;19.188;2022-12-18T06:33:47;102188.38;;;-7.70;100.00
67013;BME280;53926;47.406;19.188;2022-12-18T06:36:14;102201.62;;;-7.62;100.00
67013;BME280;53926;47.406;19.188;2022-12-18T06:38:42;102197.28;;;-7.58;100.00
67013;BME280;53926;47.406;19.188;2022-12-18T06:41:14;102203.59;;;-7.71;100.00
67013;BME280;53926;47.406;19.188;2022-12-18T06:43:41;102214.47;;;-7.69;100.00
67013;BME280;53926;47.406;19.188;2022-12-18T06:46:09;102219.91;;;-7.52;100.00
67013;BME280;53926;47.406;19.188;2022-12-18T06:48:36;102211.31;;;-7.46;100.00
67013;BME280;53926;47.406;19.188;2022-12-18T06:51:03;102221.25;;;-7.40;100.00
67013;BME280;53926;47.406;19.188;2022-12-18T06:53:31;102216.13;;;-7.37;100.00
67013;BME280;53926;47.406;19.188;2022-12-18T06:56:05;102221.25;;;-7.40;100.00
67013;BME280;53926;47.406;19.188;2022-12-18T06:58:36;102225.47;;;-7.39;100.00
67013;BME280;53926;47.406;19.188;2022-12-18T07:01:05;102216.44;;;-7.20;100.00
67013;BME280;53926;47.406;19.188;2022-12-18T07:03:32;102228.00;;;-7.11;100.00
67013;BME280;53926;47.406;19.188;2022-12-18T07:06:02;102228.00;;;-7.11;100.00
67013;BME280;53926;47.406;19.188;2022-12-18T07:08:30;102242.19;;;-7.05;100.00
67013;BME280;53926;47.406;19.188;2022-12-18T07:11:18;102251.53;;;-7.07;100.00
67013;BME280;53926;47.406;19.188;2022-12-18T07:13:45;102247.69;;;-6.91;100.00
67013;BME280;53926;47.406;19.188;2022-12-18T07:16:17;102248.22;;;-6.81;100.00
67013;BME280;53926;47.406;19.188;2022-12-18T07:18:53;102250.19;;;-6.62;100.00
67013;BME280;53926;47.406;19.188;2022-12-18T07:21:22;102262.00;;;-6.61;100.00
67013;BME280;53926;47.406;19.188;2022-12-18T07:23:52;102269.41;;;-6.55;100.00
67013;BME280;53926;47.406;19.188;2022-12-18T07:26:20;102269.44;;;-6.57;100.00
67013;BME280;53926;47.406;19.188;2022-12-18T07:28:48;102270.78;;;-6.45;100.00
67013;BME280;53926;47.406;19.188;2022-12-18T07:31:19;102276.84;;;-6.24;100.00
67013;BME280;53926;47.406;19.188;2022-12-18T07:33:50;102276.75;;;-6.21;100.00
67013;BME280;53926;47.406;19.188;2022-12-18T07:36:21;102288.63;;;-6.21;100.00
67013;BME280;53926;47.406;19.188;2022-12-18T07:38:55;102290.97;;;-6.15;100.00
67013;BME280;53926;47.406;19.188;2022-12-18T07:41:25;102294.16;;;-5.85;100.00
67013;BME280;53926;47.406;19.188;2022-12-18T07:43:53;102304.25;;;-5.83;100.00
67013;BME280;53926;47.406;19.188;2022-12-18T07:46:20;102297.22;;;-5.75;100.00
67013;BME280;53926;47.406;19.188;2022-12-18T07:49:07;102299.59;;;-5.70;100.00
67013;BME280;53926;47.406;19.188;2022-12-18T07:51:34;102298.50;;;-5.63;100.00
67013;BME280;53926;47.406;19.188;2022-12-18T07:54:02;102304.66;;;-5.45;100.00
67013;BME280;53926;47.406;19.188;2022-12-18T07:56:51;102313.56;;;-5.33;100.00
67013;BME280;53926;47.406;19.188;2022-12-18T07:59:19;102318.13;;;-5.19;100.00
67013;BME280;53926;47.406;19.188;2022-12-18T08:01:45;102315.25;;;-5.10;100.00
67013;BME280;53926;47.406;19.188;2022-12-18T08:04:12;102323.00;;;-4.90;100.00
67013;BME280;53926;47.406;19.188;2022-12-18T08:06:39;102326.38;;;-4.89;100.00
67013;BME280;53926;47.406;19.188;2022-12-18T08:09:15;102328.03;;;-4.66;100.00
67013;BME280;53926;47.406;19.188;2022-12-18T08:11:42;102334.00;;;-4.67;100.00
67013;BME280;53926;47.406;19.188;2022-12-18T08:14:09;102333.84;;;-4.62;100.00
67013;BME280;53926;47.406;19.188;2022-12-18T08:16:36;102332.13;;;-4.40;100.00
67013;BME280;53926;47.406;19.188;2022-12-18T08:19:03;102337.50;;;-4.25;100.00
67013;BME280;53926;47.406;19.188;2022-12-18T08:21:31;102340.91;;;-4.04;100.00
67013;BME280;53926;47.406;19.188;2022-12-18T08:24:00;102338.06;;;-3.97;100.00
67013;BME280;53926;47.406;19.188;2022-12-18T08:26:28;102348.03;;;-3.92;100.00
67013;BME280;53926;47.406;19.188;2022-12-18T08:28:57;102350.91;;;-3.79;100.00
67013;BME280;53926;47.406;19.188;2022-12-18T08:31:25;102354.44;;;-3.82;100.00
67013;BME280;53926;47.406;19.188;2022-12-18T08:33:53;102350.34;;;-3.65;100.00
67013;BME280;53926;47.406;19.188;2022-12-18T08:36:23;102349.00;;;-3.53;100.00
67013;BME280;53926;47.406;19.188;2022-12-18T08:38:51;102354.06;;;-3.33;100.00
67013;BME280;53926;47.406;19.188;2022-12-18T08:41:18;102363.44;;;-3.33;100.00
67013;BME280;53926;47.406;19.188;2022-12-18T08:43:45;102361.25;;;-3.22;100.00
67013;BME280;53926;47.406;19.188;2022-12-18T08:46:48;102362.91;;;-3.21;100.00
67013;BME280;53926;47.406;19.188;2022-12-18T08:49:14;102356.47;;;-3.09;100.00
67013;BME280;53926;47.406;19.188;2022-12-18T08:51:41;102362.03;;;-3.01;100.00
67013;BME280;53926;47.406;19.188;2022-12-18T08:54:13;102357.56;;;-2.77;100.00
67013;BME280;53926;47.406;19.188;2022-12-18T08:56:44;102358.78;;;-2.66;100.00
67013;BME280;53926;47.406;19.188;2022-12-18T08:59:11;102360.66;;;-2.51;100.00
67013;BME280;53926;47.406;19.188;2022-12-18T09:01:45;102360.25;;;-2.24;100.00
67013;BME280;53926;47.406;19.188;2022-12-18T09:04:12;102355.63;;;-1.30;100.00
67013;BME280;53926;47.406;19.188;2022-12-18T09:06:40;102369.41;;;-0.05;100.00
67013;BME280;53926;47.406;19.188;2022-12-18T09:09:07;102369.94;;;1.58;100.00
67013;BME280;53926;47.406;19.188;2022-12-18T09:11:33;102365.44;;;3.29;100.00
67013;BME280;53926;47.406;19.188;2022-12-18T09:14:01;102367.16;;;4.01;100.00
67013;BME280;53926;47.406;19.188;2022-12-18T09:16:28;102371.94;;;4.75;90.97
67013;BME280;53926;47.406;19.188;2022-12-18T09:18:58;102375.16;;;5.23;84.36
67013;BME280;53926;47.406;19.188;2022-12-18T09:21:31;102381.16;;;5.55;86.17
67013;BME280;53926;47.406;19.188;2022-12-18T09:24:02;102382.06;;;6.71;72.65
67013;BME280;53926;47.406;19.188;2022-12-18T09:26:30;102378.41;;;7.44;77.37
67013;BME280;53926;47.406;19.188;2022-12-18T09:28:57;102379.22;;;8.03;68.63
67013;BME280;53926;47.406;19.188;2022-12-18T09:31:24;102369.13;;;8.57;67.95
67013;BME280;53926;47.406;19.188;2022-12-18T09:33:51;102378.16;;;7.76;69.32
67013;BME280;53926;47.406;19.188;2022-12-18T09:36:18;102377.34;;;7.95;62.66
67013;BME280;53926;47.406;19.188;2022-12-18T09:38:47;102373.13;;;7.65;63.29
67013;BME280;53926;47.406;19.188;2022-12-18T09:44:41;102371.72;;;7.12;64.84
67013;BME280;53926;47.406;19.188;2022-12-18T09:47:15;102377.97;;;6.38;64.24
67013;BME280;53926;47.406;19.188;2022-12-18T09:49:46;102369.13;;;7.31;67.72
67013;BME280;53926;47.406;19.188;2022-12-18T09:52:25;102383.81;;;9.94;54.09
67013;BME280;53926;47.406;19.188;2022-12-18T09:54:58;102375.91;;;9.41;55.88
67013;BME280;53926;47.406;19.188;2022-12-18T09:57:26;102374.47;;;10.62;51.10
67013;BME280;53926;47.406;19.188;2022-12-18T09:59:56;102384.66;;;10.47;50.18
67013;BME280;53926;47.406;19.188;2022-12-18T10:02:26;102373.41;;;11.65;47.02
67013;BME280;53926;47.406;19.188;2022-12-18T10:10:53;102364.25;;;11.60;45.85
67013;BME280;53926;47.406;19.188;2022-12-18T10:13:34;102364.53;;;10.57;46.33
67013;BME280;53926;47.406;19.188;2022-12-18T10:16:35;102357.22;;;11.61;46.08
67013;BME280;53926;47.406;19.188;2022-12-18T10:21:32;102365.09;;;10.16;47.57
67013;BME280;53926;47.406;19.188;2022-12-18T10:26:38;102366.66;;;11.04;45.28
67013;BME280;53926;47.406;19.188;2022-12-18T10:29:11;102355.75;;;11.99;44.51
67013;BME280;53926;47.406;19.188;2022-12-18T10:31:38;102358.72;;;12.52;43.12
67013;BME280;53926;47.406;19.188;2022-12-18T10:34:14;102360.16;;;11.99;43.85
67013;BME280;53926;47.406;19.188;2022-12-18T10:36:41;102357.75;;;12.85;41.04
67013;BME280;53926;47.406;19.188;2022-12-18T10:39:20;102360.12;;;11.08;43.69
67013;BME280;53926;47.406;19.188;2022-12-18T10:41:49;102352.47;;;12.93;40.10
67013;BME280;53926;47.406;19.188;2022-12-18T10:44:22;102359.66;;;12.60;40.79
67013;BME280;53926;47.406;19.188;2022-12-18T10:47:04;102352.66;;;12.52;41.29
67013;BME280;53926;47.406;19.188;2022-12-18T10:49:43;102349.22;;;12.04;41.10
67013;BME280;53926;47.406;19.188;2022-12-18T10:52:21;102362.44;;;12.10;40.03
67013;BME280;53926;47.406;19.188;2022-12-18T10:54:49;102358.56;;;13.17;37.12
67013;BME280;53926;47.406;19.188;2022-12-18T10:59:59;102355.19;;;12.29;39.25
67013;BME280;53926;47.406;19.188;2022-12-18T11:02:34;102358.34;;;12.95;37.77
67013;BME280;53926;47.406;19.188;2022-12-18T11:05:03;102357.72;;;11.97;38.16
67013;BME280;53926;47.406;19.188;2022-12-18T11:07:48;102361.72;;;13.35;37.10
67013;BME280;53926;47.406;19.188;2022-12-18T11:10:18;102356.13;;;13.62;34.78
67013;BME280;53926;47.406;19.188;2022-12-18T11:12:45;102359.50;;;11.80;38.80
67013;BME280;53926;47.406;19.188;2022-12-18T11:15:20;102352.44;;;10.99;40.14
67013;BME280;53926;47.406;19.188;2022-12-18T11:17:50;102347.47;;;12.44;37.66
67013;BME280;53926;47.406;19.188;2022-12-18T11:20:31;102348.28;;;12.44;37.93
67013;BME280;53926;47.406;19.188;2022-12-18T11:23:11;102350.47;;;12.24;37.66
67013;BME280;53926;47.406;19.188;2022-12-18T11:25:39;102339.03;;;10.85;39.04
67013;BME280;53926;47.406;19.188;2022-12-18T11:28:38;102347.03;;;10.84;39.62
67013;BME280;53926;47.406;19.188;2022-12-18T11:31:23;102340.22;;;10.48;40.36
67013;BME280;53926;47.406;19.188;2022-12-18T11:33:56;102343.72;;;9.42;43.84
67013;BME280;53926;47.406;19.188;2022-12-18T11:36:46;102341.66;;;10.85;40.63
67013;BME280;53926;47.406;19.188;2022-12-18T11:39:18;102337.84;;;11.55;37.79
67013;BME280;53926;47.406;19.188;2022-12-18T11:41:59;102339.59;;;11.79;38.57
67013;BME280;53926;47.406;19.188;2022-12-18T11:50:01;102332.78;;;11.29;38.68
67013;BME280;53926;47.406;19.188;2022-12-18T11:52:38;102343.44;;;10.16;40.88
67013;BME280;53926;47.406;19.188;2022-12-18T11:55:18;102341.66;;;9.90;42.41
67013;BME280;53926;47.406;19.188;2022-12-18T11:58:11;102334.75;;;10.60;40.54
67013;BME280;53926;47.406;19.188;2022-12-18T12:09:12;102330.50;;;8.34;45.73
67013;BME280;53926;47.406;19.188;2022-12-18T12:14:28;102327.03;;;9.89;41.74
67013;BME280;53926;47.406;19.188;2022-12-18T12:17:13;102328.28;;;9.85;42.33
67013;BME280;53926;47.406;19.188;2022-12-18T12:22:39;102335.97;;;6.24;51.68
67013;BME280;53926;47.406;19.188;2022-12-18T12:25:25;102332.22;;;4.99;56.57
67013;BME280;53926;47.406;19.188;2022-12-18T12:28:36;102321.56;;;4.02;59.98
67013;BME280;53926;47.406;19.188;2022-12-18T12:34:02;102328.06;;;2.99;64.57
67013;BME280;53926;47.406;19.188;2022-12-18T12:39:21;102333.38;;;2.33;68.73
67013;BME280;53926;47.406;19.188;2022-12-18T12:41:49;102331.53;;;2.10;71.67
67013;BME280;53926;47.406;19.188;2022-12-18T12:44:40;102333.44;;;1.93;73.65
67013;BME280;53926;47.406;19.188;2022-12-18T12:47:25;102338.41;;;1.69;74.25
67013;BME280;53926;47.406;19.188;2022-12-18T12:49:56;102347.09;;;1.54;74.70
67013;BME280;53926;47.406;19.188;2022-12-18T12:52:31;102337.72;;;1.40;75.61
67013;BME280;53926;47.406;19.188;2022-12-18T12:55:05;102349.88;;;1.23;74.85
67013;BME280;53926;47.406;19.188;2022-12-18T12:57:45;102355.72;;;1.25;75.70
67013;BME280;53926;47.406;19.188;2022-12-18T13:00:18;102352.16;;;1.14;76.13
67013;BME280;53926;47.406;19.188;2022-12-18T13:03:08;102355.59;;;1.00;76.32
67013;BME280;53926;47.406;19.188;2022-12-18T13:05:46;102366.41;;;1.05;76.80
67013;BME280;53926;47.406;19.188;2022-12-18T13:08:54;102363.00;;;1.04;75.65
67013;BME280;53926;47.406;19.188;2022-12-18T13:14:41;102367.06;;;0.80;77.34
67013;BME280;53926;47.406;19.188;2022-12-18T13:19:50;102373.41;;;0.74;79.08
67013;BME280;53926;47.406;19.188;2022-12-18T13:22:31;102379.34;;;0.75;78.71
67013;BME280;53926;47.406;19.188;2022-12-18T13:24:59;102376.41;;;0.66;80.19
67013;BME280;53926;47.406;19.188;2022-12-18T13:28:12;102385.91;;;0.64;80.63
67013;BME280;53926;47.406;19.188;2022-12-18T13:44:36;102398.63;;;0.37;86.69
67013;BME280;53926;47.406;19.188;2022-12-18T13:49:52;102408.63;;;0.11;90.73
67013;BME280;53926;47.406;19.188;2022-12-18T13:52:22;102410.47;;;-0.07;91.28
67013;BME280;53926;47.406;19.188;2022-12-18T13:55:01;102407.25;;;-0.10;91.36
67013;BME280;53926;47.406;19.188;2022-12-18T13:57:37;102412.41;;;-0.42;93.00
67013;BME280;53926;47.406;19.188;2022-12-18T14:00:24;102405.63;;;-0.27;93.63
67013;BME280;53926;47.406;19.188;2022-12-18T14:02:51;102408.09;;;-0.42;95.08
67013;BME280;53926;47.406;19.188;2022-12-18T14:05:28;102414.47;;;-0.49;95.25
67013;BME280;53926;47.406;19.188;2022-12-18T14:08:05;102414.13;;;-0.59;96.14
67013;BME280;53926;47.406;19.188;2022-12-18T14:10:35;102414.62;;;-0.68;98.74
67013;BME280;53926;47.406;19.188;2022-12-18T14:13:19;102410.66;;;-0.74;99.75
67013;BME280;53926;47.406;19.188;2022-12-18T14:15:48;102407.84;;;-0.85;100.00
67013;BME280;53926;47.406;19.188;2022-12-18T14:20:51;102405.63;;;-1.24;100.00
67013;BME280;53926;47.406;19.188;2022-12-18T14:23:39;102417.22;;;-1.52;100.00
67013;BME280;53926;47.406;19.188;2022-12-18T14:26:25;102414.53;;;-1.49;100.00
67013;BME280;53926;47.406;19.188;2022-12-18T14:28:58;102411.59;;;-1.76;100.00